Time;durP1;ratioP1;P1;durP2;ratioP2;P2;SDS_P1;SDS_P2;PMS_P1;PMS_P2;Temp;Humidity;BMP_temperature;BMP_pressure;BME280_temperature;BME280_humidity;BME280_pressure;Samples;Min_cycle;Max_cycle;Signal;HPM_P1;HPM_P2
2022/05/01 00:00:14;;;;;;;;;18.00;15.00;;;;;14.72;40.37;101874.06;2084994;28;47770;-58
2022/05/01 00:01:15;;;;;;;;;13.25;13.25;;;;;14.72;40.46;101873.19;2079003;28;47526;-57
2022/05/01 00:02:15;;;;;;;;;11.80;11.80;;;;;14.69;40.25;101868.78;2088633;28;47566;-57
2022/05/01 00:03:30;;;;;;;;;13.75;13.75;;;;;14.68;40.59;101866.16;2089779;28;47512;-58
2022/05/01 00:04:31;;;;;;;;;12.20;11.20;;;;;14.65;40.40;101869.78;2087862;28;47816;-58
2022/05/01 00:05:32;;;;;;;;;8.25;8.25;;;;;14.63;40.44;101868.06;2085416;28;47208;-58
2022/05/01 00:06:33;;;;;;;;;16.60;14.40;;;;;14.63;40.49;101873.38;2090025;28;48019;-59
2022/05/01 00:07:33;;;;;;;;;14.00;14.00;;;;;14.61;40.43;101870.75;2087859;28;47669;-58
2022/05/01 00:08:35;;;;;;;;;14.00;12.75;;;;;14.60;40.58;101862.75;2087552;28;48056;-59
2022/05/01 00:09:36;;;;;;;;;12.80;12.00;;;;;14.57;40.56;101866.34;2082678;28;48074;-58
2022/05/01 00:10:36;;;;;;;;;12.25;11.00;;;;;14.55;40.51;101869.97;2087861;28;47722;-58
2022/05/01 00:11:37;;;;;;;;;13.00;12.25;;;;;14.54;40.56;101865.56;2089240;28;47248;-58
2022/05/01 00:12:38;;;;;;;;;15.20;15.20;;;;;14.53;40.90;101866.47;2086850;28;47830;-58
2022/05/01 00:13:40;;;;;;;;;14.50;13.00;;;;;14.51;40.81;101865.63;2085997;28;47845;-57
2022/05/01 00:14:40;;;;;;;;;11.60;11.60;;;;;14.50;40.83;101866.53;2085258;28;47859;-57
2022/05/01 00:15:42;;;;;;;;;17.25;14.00;;;;;14.49;40.67;101862.09;2079464;28;47511;-58
2022/05/01 00:16:43;;;;;;;;;13.60;12.80;;;;;14.47;41.03;101859.44;2085345;28;48139;-58
2022/05/01 00:17:43;;;;;;;;;15.25;14.00;;;;;14.49;40.95;101864.78;2087720;28;47881;-58
2022/05/01 00:18:44;;;;;;;;;11.00;10.00;;;;;14.48;41.01;101863.88;2087255;28;47469;-57
2022/05/01 00:19:45;;;;;;;;;13.00;12.40;;;;;14.49;41.13;101862.09;2087508;28;47649;-57
2022/05/01 00:20:46;;;;;;;;;12.00;12.00;;;;;14.50;40.82;101863.88;2079512;28;49965;-58
2022/05/01 00:21:46;;;;;;;;;14.00;14.00;;;;;14.48;40.84;101862.97;2082496;28;47962;-56
2022/05/01 00:22:47;;;;;;;;;11.50;11.50;;;;;14.47;40.93;101861.22;2081488;28;47772;-58
2022/05/01 00:23:47;;;;;;;;;13.25;11.00;;;;;14.47;41.02;101862.09;2087499;28;47140;-58
2022/05/01 00:24:47;;;;;;;;;9.50;9.50;;;;;14.47;41.26;101858.56;2087533;28;47297;-58
2022/05/01 00:25:48;;;;;;;;;13.75;11.75;;;;;14.47;41.03;101861.22;2087583;28;47675;-57
2022/05/01 00:26:48;;;;;;;;;13.25;13.00;;;;;14.46;41.22;101859.47;2085349;28;48027;-58
2022/05/01 00:27:49;;;;;;;;;12.75;12.75;;;;;14.46;41.24;101864.81;2094795;28;47625;-58
2022/05/01 00:28:49;;;;;;;;;16.00;14.75;;;;;14.42;41.15;101859.50;2094868;28;48223;-57
2022/05/01 00:29:50;;;;;;;;;13.50;13.25;;;;;14.39;40.83;101864.91;2087401;28;47289;-56
2022/05/01 00:30:50;;;;;;;;;14.25;11.50;;;;;14.36;40.95;101864.09;2087399;28;47468;-58
2022/05/01 00:31:51;;;;;;;;;13.00;12.25;;;;;14.35;41.11;101854.28;2100811;28;46377;-57
2022/05/01 00:36:50;;;;;;;;;12.00;12.00;;;;;14.29;41.54;101857.09;2086316;28;47601;-56
2022/05/01 00:37:50;;;;;;;;;11.25;9.25;;;;;14.26;41.30;101858.03;2086745;28;47974;-56
2022/05/01 00:39:00;;;;;;;;;13.75;13.50;;;;;14.26;41.39;101857.16;2090604;28;47899;-57
2022/05/01 00:40:00;;;;;;;;;14.40;12.80;;;;;14.24;41.48;101859.88;2094135;28;47536;-56
2022/05/01 00:41:03;;;;;;;;;12.00;11.50;;;;;14.22;41.45;101853.66;2094356;28;47944;-57
2022/05/01 00:42:04;;;;;;;;;11.40;11.40;;;;;14.21;41.60;101857.22;2094837;28;47626;-56
2022/05/01 00:43:05;;;;;;;;;15.75;14.00;;;;;14.19;41.48;101861.72;2094651;28;47033;-61
2022/05/01 00:44:08;;;;;;;;;12.50;11.50;;;;;14.20;41.67;101859.94;2077469;28;47498;-57
2022/05/01 00:45:08;;;;;;;;;13.00;13.00;;;;;14.20;41.60;101857.25;2077711;28;47856;-56
2022/05/01 00:46:09;;;;;;;;;8.50;8.00;;;;;14.19;41.62;101850.16;2094590;28;47554;-58
2022/05/01 00:47:09;;;;;;;;;12.25;11.00;;;;;14.18;41.69;101859.09;2091356;28;47755;-58
2022/05/01 00:48:09;;;;;;;;;13.50;13.50;;;;;14.16;41.70;101858.22;2094737;28;47361;-58
2022/05/01 00:49:13;;;;;;;;;11.50;11.00;;;;;14.15;41.67;101852.00;2093595;28;47890;-58
2022/05/01 00:50:16;;;;;;;;;15.00;14.60;;;;;14.14;41.70;101851.13;2092793;28;47875;-56
2022/05/01 00:51:20;;;;;;;;;15.00;11.00;;;;;14.13;41.71;101854.72;2094749;28;48151;-57
2022/05/01 00:52:22;;;;;;;;;11.80;10.80;;;;;14.13;41.78;101857.38;2095006;28;47720;-58
2022/05/01 00:53:23;;;;;;;;;12.00;11.60;;;;;14.11;41.91;101851.19;2094985;28;47440;-57
2022/05/01 00:54:29;;;;;;;;;12.50;12.50;;;;;14.10;41.74;101857.44;2093343;28;47420;-58
2022/05/01 00:55:33;;;;;;;;;14.60;14.60;;;;;14.07;41.83;101849.47;2092437;28;47753;-58
2022/05/01 00:56:38;;;;;;;;;11.40;9.40;;;;;14.06;42.04;101858.38;2091268;28;47866;-57
2022/05/01 00:57:39;;;;;;;;;16.00;16.00;;;;;14.04;41.92;101854.88;2092090;28;47022;-58
2022/05/01 00:58:40;;;;;;;;;16.00;16.00;;;;;14.03;42.06;101853.13;2094668;28;47765;-58
2022/05/01 00:59:42;;;;;;;;;11.20;11.20;;;;;14.04;41.88;101859.34;2092934;28;47546;-58
2022/05/01 01:00:42;;;;;;;;;12.80;12.80;;;;;14.04;42.17;101846.00;2094777;28;47381;-58
2022/05/01 01:01:44;;;;;;;;;13.50;13.00;;;;;14.05;42.00;101855.75;2093432;28;46680;-57
2022/05/01 01:02:47;;;;;;;;;12.80;11.80;;;;;14.04;42.10;101854.00;2090063;28;47818;-58
2022/05/01 01:03:48;;;;;;;;;10.80;10.60;;;;;14.04;42.15;101856.66;2094685;28;47547;-58
2022/05/01 01:04:48;;;;;;;;;10.20;9.80;;;;;14.05;42.23;101856.63;2094582;28;47527;-58
2022/05/01 01:05:49;;;;;;;;;12.50;12.50;;;;;14.06;42.27;101854.84;2093588;28;47950;-58
2022/05/01 01:06:49;;;;;;;;;13.50;11.50;;;;;14.06;42.00;101845.03;2094261;28;47501;-58
2022/05/01 01:07:50;;;;;;;;;12.25;12.00;;;;;14.07;42.09;101851.25;2094018;28;47828;-58
2022/05/01 01:08:51;;;;;;;;;10.20;10.20;;;;;14.08;42.18;101850.34;2093247;28;48425;-58
2022/05/01 01:09:52;;;;;;;;;10.00;10.00;;;;;14.07;42.01;101852.13;2094596;28;47901;-58
2022/05/01 01:10:52;;;;;;;;;10.00;10.00;;;;;14.07;42.13;101843.25;2093913;28;47738;-58
2022/05/01 01:13:12;;;;;;;;;11.00;10.80;;;;;14.03;42.28;101850.44;2094469;28;47585;-58
2022/05/01 01:14:15;;;;;;;;;12.75;12.75;;;;;14.01;42.36;101846.94;2093837;28;47763;-58
2022/05/01 01:15:16;;;;;;;;;11.20;11.20;;;;;14.00;42.25;101847.84;2087137;28;46892;-56
2022/05/01 01:16:16;;;;;;;;;13.25;13.25;;;;;13.99;42.19;101837.19;2087371;28;47696;-58
2022/05/01 01:17:16;;;;;;;;;13.25;12.50;;;;;14.00;42.32;101846.97;2086613;28;47398;-57
2022/05/01 01:18:17;;;;;;;;;14.25;13.25;;;;;14.00;42.37;101844.28;2087418;28;47377;-58
2022/05/01 01:19:17;;;;;;;;;13.50;13.00;;;;;14.00;42.26;101839.84;2086171;28;47398;-58
2022/05/01 01:20:18;;;;;;;;;13.50;13.50;;;;;14.01;42.39;101846.06;2086131;28;47710;-58
2022/05/01 01:21:19;;;;;;;;;11.40;10.00;;;;;14.00;42.39;101845.16;2080038;28;47591;-58
2022/05/01 01:22:20;;;;;;;;;18.25;15.75;;;;;13.98;42.25;101846.13;2084248;28;47568;-58
2022/05/01 01:23:21;;;;;;;;;16.80;16.80;;;;;13.97;42.55;101847.88;2086002;28;46723;-58
2022/05/01 01:24:22;;;;;;;;;17.00;16.60;;;;;13.96;42.68;101845.22;2087319;28;47891;-58
2022/05/01 01:25:29;;;;;;;;;17.50;17.50;;;;;13.95;42.54;101846.16;2087432;28;47740;-58
2022/05/01 01:26:32;;;;;;;;;13.20;13.20;;;;;13.95;42.60;101846.16;2088095;28;47493;-58
2022/05/01 01:27:32;;;;;;;;;16.00;15.20;;;;;13.97;42.54;101850.53;2084149;28;47609;-58
2022/05/01 01:28:38;;;;;;;;;12.00;12.00;;;;;13.98;42.68;101846.13;2086624;28;48048;-58
2022/05/01 01:32:20;;;;;;;;;16.20;13.80;;;;;13.96;42.52;101846.09;2087419;28;47848;-57
2022/05/01 01:33:23;;;;;;;;;14.75;14.75;;;;;13.95;42.63;101838.13;2087446;28;47572;-57
2022/05/01 01:34:31;;;;;;;;;15.20;14.00;;;;;13.94;42.66;101841.72;2087140;28;47921;-56
2022/05/01 01:35:35;;;;;;;;;15.60;15.00;;;;;13.92;42.80;101836.41;2086264;28;47938;-57
2022/05/01 01:36:37;;;;;;;;;13.60;13.20;;;;;13.92;42.86;101836.41;2085261;28;47722;-58
2022/05/01 01:37:43;;;;;;;;;12.40;12.40;;;;;13.92;42.84;101839.06;2087571;28;47702;-58
2022/05/01 01:38:43;;;;;;;;;13.60;13.20;;;;;13.90;42.76;101832.88;2086606;28;47641;-57
2022/05/01 01:39:46;;;;;;;;;12.00;12.00;;;;;13.92;42.76;101838.19;2085935;28;47508;-58
2022/05/01 01:40:53;;;;;;;;;16.20;13.60;;;;;13.92;42.96;101840.88;2081512;28;47516;-56
2022/05/01 01:41:56;;;;;;;;;16.20;15.60;;;;;13.93;42.87;101843.50;2087576;28;47491;-58
2022/05/01 01:42:58;;;;;;;;;15.40;13.40;;;;;13.92;42.75;101836.41;2087115;28;47833;-58
2022/05/01 01:43:59;;;;;;;;;11.00;11.00;;;;;13.92;42.94;101841.75;2086386;28;47435;-57
2022/05/01 01:45:01;;;;;;;;;9.80;9.80;;;;;13.92;43.01;101841.75;2087005;28;46846;-57
2022/05/01 01:46:01;;;;;;;;;14.40;12.80;;;;;13.89;42.81;101841.81;2087121;28;47765;-57
2022/05/01 01:47:02;;;;;;;;;15.00;15.00;;;;;13.88;42.71;101844.50;2086989;28;47170;-58
2022/05/01 01:48:14;;;;;;;;;16.00;13.75;;;;;13.86;43.04;101838.31;2095622;28;47833;-58
2022/05/01 01:49:15;;;;;;;;;13.60;13.60;;;;;13.84;42.93;101841.00;2101649;27;48064;-58
2022/05/01 01:50:19;;;;;;;;;12.25;11.25;;;;;13.82;42.87;101841.00;2083896;28;47948;-58
2022/05/01 01:51:20;;;;;;;;;13.40;12.40;;;;;13.82;42.91;101841.00;2082926;28;47894;-58
2022/05/01 01:52:20;;;;;;;;;16.00;15.00;;;;;13.80;43.08;101839.28;2086057;28;47460;-58
2022/05/01 01:53:21;;;;;;;;;14.75;14.25;;;;;13.79;43.22;101838.41;2087569;28;48057;-58
2022/05/01 01:54:21;;;;;;;;;14.25;13.00;;;;;13.79;43.06;101834.88;2082651;28;46947;-58
2022/05/01 01:55:22;;;;;;;;;17.25;14.00;;;;;13.79;43.05;101832.19;2082855;28;47898;-58
2022/05/01 01:56:22;;;;;;;;;14.25;12.75;;;;;13.79;42.94;101837.53;2080389;28;47593;-59
2022/05/01 01:57:23;;;;;;;;;12.25;12.00;;;;;13.79;43.26;101842.88;2084782;28;47474;-58
2022/05/01 01:58:24;;;;;;;;;13.25;12.00;;;;;13.78;43.25;101836.66;2088864;28;47394;-58
2022/05/01 01:59:24;;;;;;;;;15.60;15.60;;;;;13.78;43.21;101839.31;2086594;28;47726;-58
2022/05/01 02:00:25;;;;;;;;;16.00;14.25;;;;;13.77;43.21;101834.88;2084279;28;48014;-58
2022/05/01 02:01:25;;;;;;;;;16.00;16.00;;;;;13.78;43.17;101836.66;2088481;28;47799;-56
2022/05/01 02:02:26;;;;;;;;;18.00;18.00;;;;;13.78;43.05;101833.09;2088597;28;47443;-58
2022/05/01 02:03:27;;;;;;;;;12.50;11.00;;;;;13.77;43.35;101834.88;2089398;28;47375;-58
2022/05/01 02:04:27;;;;;;;;;11.80;10.80;;;;;13.76;43.08;101827.81;2096987;28;48030;-55
2022/05/01 02:05:27;;;;;;;;;14.50;14.50;;;;;13.75;43.21;101827.81;2088967;28;47776;-58
2022/05/01 02:06:28;;;;;;;;;16.75;14.75;;;;;13.75;43.38;101828.72;2088753;28;47334;-58
2022/05/01 02:07:32;;;;;;;;;12.00;12.00;;;;;13.74;43.28;101826.94;2088857;28;47315;-58
2022/05/01 02:08:34;;;;;;;;;13.80;13.60;;;;;13.72;43.30;101828.75;2088035;28;47793;-58
2022/05/01 02:09:37;;;;;;;;;14.20;14.00;;;;;13.71;43.43;101820.75;2088803;28;47992;-57
2022/05/01 02:10:39;;;;;;;;;13.20;13.20;;;;;13.68;43.27;101829.69;2096849;28;47925;-57
2022/05/01 02:11:40;;;;;;;;;16.40;16.00;;;;;13.67;43.66;101821.72;2091599;28;47851;-57
2022/05/01 02:12:40;;;;;;;;;14.40;12.80;;;;;13.65;43.38;101824.44;2088774;28;47697;-56
2022/05/01 02:13:40;;;;;;;;;14.00;14.00;;;;;13.66;43.38;101820.84;2087537;28;47647;-57
2022/05/01 02:14:41;;;;;;;;;15.00;15.00;;;;;13.66;43.35;101827.97;2088484;28;47386;-56
2022/05/01 02:15:42;;;;;;;;;15.00;15.00;;;;;13.65;43.32;101819.09;2088866;28;48222;-57
2022/05/01 02:16:44;;;;;;;;;12.60;12.60;;;;;13.66;43.36;101817.31;2088329;28;46614;-57
2022/05/01 02:17:45;;;;;;;;;13.80;13.20;;;;;13.63;43.30;101820.03;2088456;28;47701;-56
2022/05/01 02:18:46;;;;;;;;;13.80;13.80;;;;;13.60;43.56;101815.63;2089867;28;47563;-59
2022/05/01 02:19:46;;;;;;;;;11.75;11.75;;;;;13.60;43.50;101817.41;2091454;28;47507;-58
2022/05/01 02:22:06;;;;;;;;;16.00;15.00;;;;;13.56;43.50;101813.91;2092002;28;47610;-58
2022/05/01 02:23:06;;;;;;;;;16.00;14.25;;;;;13.54;43.63;101815.72;2085530;28;47711;-57
2022/05/01 02:24:12;;;;;;;;;13.75;13.25;;;;;13.52;43.71;101818.41;2088715;28;47752;-57
2022/05/01 02:25:13;;;;;;;;;13.20;13.20;;;;;13.49;43.60;101821.13;2083826;28;47833;-57
2022/05/01 02:26:14;;;;;;;;;13.75;13.00;;;;;13.48;43.74;101814.03;2084192;28;47981;-58
2022/05/01 02:27:14;;;;;;;;;16.00;15.25;;;;;13.47;43.91;101825.63;2086321;28;47007;-58
2022/05/01 02:28:15;;;;;;;;;16.50;14.75;;;;;13.46;43.83;101821.16;2088530;28;47624;-59
2022/05/01 02:29:15;;;;;;;;;15.60;15.60;;;;;13.46;43.88;101822.94;2087843;28;47670;-59
2022/05/01 02:30:16;;;;;;;;;17.25;14.75;;;;;13.43;44.00;101820.34;2088682;28;47428;-58
2022/05/01 02:31:17;;;;;;;;;16.25;15.25;;;;;13.43;43.94;101823.88;2085603;28;47842;-57
2022/05/01 02:32:17;;;;;;;;;14.25;14.25;;;;;13.40;43.87;101815.94;2080616;28;47675;-58
2022/05/01 02:33:19;;;;;;;;;14.50;14.50;;;;;13.41;43.98;101812.38;2087277;28;47566;-58
2022/05/01 02:34:24;;;;;;;;;13.20;12.40;;;;;13.40;44.14;101815.06;2082369;28;47435;-57
2022/05/01 02:35:24;;;;;;;;;13.00;13.00;;;;;13.39;43.96;101816.84;2087193;28;48203;-57
2022/05/01 02:36:25;;;;;;;;;16.25;15.25;;;;;13.39;44.31;101816.84;2086868;28;47704;-57
2022/05/01 02:37:25;;;;;;;;;13.00;13.00;;;;;13.39;44.22;101814.19;2082424;28;47534;-57
2022/05/01 02:38:25;;;;;;;;;17.00;15.25;;;;;13.40;44.23;101818.59;2088549;28;48097;-55
2022/05/01 02:39:26;;;;;;;;;15.25;15.25;;;;;13.38;44.22;101815.09;2088431;28;47649;-57
2022/05/01 02:40:26;;;;;;;;;13.50;12.50;;;;;13.38;44.29;101812.44;2088399;28;47361;-57
2022/05/01 02:41:28;;;;;;;;;13.50;12.75;;;;;13.38;44.07;101816.88;2087803;28;47160;-57
2022/05/01 02:42:28;;;;;;;;;14.00;13.60;;;;;13.38;44.09;101808.88;2088546;28;46734;-58
2022/05/01 02:43:29;;;;;;;;;15.00;14.75;;;;;13.38;44.29;101807.09;2086198;28;47779;-57
2022/05/01 02:44:30;;;;;;;;;13.00;12.50;;;;;13.40;44.32;101807.06;2081660;28;47483;-58
2022/05/01 02:45:30;;;;;;;;;16.40;14.80;;;;;13.39;44.11;101799.97;2082415;28;47458;-60
2022/05/01 02:46:32;;;;;;;;;13.00;13.00;;;;;13.39;44.13;101805.31;2088561;28;47904;-57
2022/05/01 02:47:33;;;;;;;;;16.40;15.60;;;;;13.38;44.14;101808.88;2087280;28;48223;-57
2022/05/01 02:48:34;;;;;;;;;16.60;16.60;;;;;13.37;44.13;101808.00;2100953;28;47243;-58
2022/05/01 02:49:35;;;;;;;;;12.75;12.75;;;;;13.36;44.16;101810.69;2095388;28;47459;-57
2022/05/01 02:50:36;;;;;;;;;14.40;14.40;;;;;13.36;44.31;101805.38;2084745;28;47556;-56
2022/05/01 02:51:36;;;;;;;;;15.00;14.40;;;;;13.33;44.36;101806.25;2083913;28;47213;-58
2022/05/01 02:52:37;;;;;;;;;13.25;13.25;;;;;13.34;44.46;101801.81;2087226;28;47919;-57
2022/05/01 02:53:38;;;;;;;;;13.00;11.00;;;;;13.34;44.27;101809.81;2090615;28;47181;-58
2022/05/01 02:54:38;;;;;;;;;16.50;16.50;;;;;13.34;44.28;101808.06;2095288;28;47566;-58
2022/05/01 02:55:39;;;;;;;;;17.75;15.25;;;;;13.34;44.18;101805.41;2092753;28;48072;-58
2022/05/01 02:56:39;;;;;;;;;13.25;13.00;;;;;13.35;44.43;101800.94;2075386;28;48357;-57
2022/05/01 02:57:40;;;;;;;;;15.00;14.75;;;;;13.33;44.48;101800.94;2077291;28;47549;-57
2022/05/01 02:58:40;;;;;;;;;18.00;17.00;;;;;13.31;44.26;101797.41;2078484;28;47683;-57
2022/05/01 02:59:41;;;;;;;;;10.50;9.25;;;;;13.29;44.41;101795.69;2085063;28;47784;-57
2022/05/01 03:00:41;;;;;;;;;13.50;12.75;;;;;13.29;44.35;101793.91;2083363;28;48317;-58
2022/05/01 03:01:43;;;;;;;;;15.50;15.00;;;;;13.29;44.38;101793.03;2082740;28;47633;-57
2022/05/01 03:02:45;;;;;;;;;12.40;12.40;;;;;13.29;44.42;101793.91;2088227;28;46186;-56
2022/05/01 03:03:46;;;;;;;;;13.80;13.60;;;;;13.28;44.57;101796.59;2087827;28;48030;-57
2022/05/01 03:04:46;;;;;;;;;17.00;14.50;;;;;13.26;44.43;101791.28;2088531;28;47937;-59
2022/05/01 03:05:47;;;;;;;;;14.00;14.00;;;;;13.24;44.49;101785.09;2087925;28;46541;-58
2022/05/01 03:06:48;;;;;;;;;14.25;14.25;;;;;13.24;44.69;101790.44;2087319;28;47474;-58
2022/05/01 03:07:48;;;;;;;;;16.50;16.50;;;;;13.21;44.52;101791.38;2088602;28;47921;-57
2022/05/01 03:08:48;;;;;;;;;18.00;17.00;;;;;13.21;44.35;101793.13;2086599;28;47517;-58
2022/05/01 03:09:49;;;;;;;;;14.00;12.00;;;;;13.19;44.51;101784.28;2088754;28;47342;-58
2022/05/01 03:10:50;;;;;;;;;16.00;15.75;;;;;13.18;44.63;101794.06;2088329;28;47453;-57
2022/05/01 03:11:50;;;;;;;;;15.75;15.75;;;;;13.17;44.56;101794.06;2086922;28;47720;-56
2022/05/01 03:12:51;;;;;;;;;15.50;15.50;;;;;13.15;44.68;101782.53;2087207;28;47391;-57
2022/05/01 03:13:51;;;;;;;;;14.75;14.75;;;;;13.12;44.95;101780.81;2083621;28;47394;-57
2022/05/01 03:14:52;;;;;;;;;15.50;14.25;;;;;13.12;44.69;101783.47;2087475;28;47962;-57
2022/05/01 03:15:52;;;;;;;;;16.50;14.75;;;;;13.13;44.82;101787.00;2086909;28;47403;-57
2022/05/01 03:16:52;;;;;;;;;16.75;16.25;;;;;13.13;45.04;101787.91;2093482;28;48066;-57
2022/05/01 03:22:10;;;;;;;;;14.00;13.20;;;;;13.12;44.97;101794.13;2079952;28;47902;-55
2022/05/01 03:23:11;;;;;;;;;16.80;15.80;;;;;13.12;45.06;101788.81;2080503;28;45663;-57
2022/05/01 03:24:11;;;;;;;;;15.50;14.25;;;;;13.13;44.90;101792.34;2074038;28;47230;-57
2022/05/01 03:25:11;;;;;;;;;14.00;13.75;;;;;13.11;45.16;101789.72;2070540;28;48153;-58
2022/05/01 03:26:12;;;;;;;;;15.00;13.75;;;;;13.10;45.02;101779.97;2077719;28;47430;-58
2022/05/01 03:27:13;;;;;;;;;15.00;15.00;;;;;13.11;44.94;101786.16;2077937;28;47337;-57
2022/05/01 03:28:13;;;;;;;;;17.25;16.50;;;;;13.10;44.85;101787.94;2078527;28;47682;-58
2022/05/01 03:29:15;;;;;;;;;14.50;14.50;;;;;13.11;44.94;101780.84;2078372;28;47097;-58
2022/05/01 03:30:15;;;;;;;;;23.20;17.80;;;;;13.09;44.85;101780.88;2078575;28;47504;-58
2022/05/01 03:31:17;;;;;;;;;14.25;14.25;;;;;13.09;44.93;101775.53;2078593;28;47251;-58
2022/05/01 03:32:17;;;;;;;;;15.20;14.20;;;;;13.10;44.87;101779.06;2076565;28;47963;-59
2022/05/01 03:33:21;;;;;;;;;13.75;13.00;;;;;13.10;44.94;101776.41;2076718;28;47503;-58
2022/05/01 03:34:23;;;;;;;;;17.20;15.40;;;;;13.09;44.97;101772.88;2077993;28;48086;-58
2022/05/01 03:35:23;;;;;;;;;18.20;16.40;;;;;13.08;44.97;101775.53;2078788;28;48227;-58
2022/05/01 03:36:24;;;;;;;;;16.50;14.75;;;;;13.05;44.92;101771.13;2077453;28;47648;-58
2022/05/01 03:37:24;;;;;;;;;18.50;17.50;;;;;13.04;45.11;101773.81;2078623;28;47367;-58
2022/05/01 03:38:25;;;;;;;;;17.00;16.25;;;;;13.02;45.29;101765.84;2078172;28;47992;-58
2022/05/01 03:39:25;;;;;;;;;15.00;15.00;;;;;13.00;45.19;101773.00;2077039;28;47639;-58
2022/05/01 03:40:25;;;;;;;;;15.50;14.00;;;;;12.98;45.21;101773.94;2077890;28;47644;-58
2022/05/01 03:41:29;;;;;;;;;15.25;15.00;;;;;12.95;45.17;101773.03;2078427;28;47621;-57
2022/05/01 03:42:29;;;;;;;;;15.00;14.40;;;;;12.94;45.22;101776.63;2078577;28;47784;-57
2022/05/01 03:43:30;;;;;;;;;16.75;15.50;;;;;12.92;45.29;101774.88;2078081;28;48038;-57
2022/05/01 03:44:31;;;;;;;;;18.60;17.80;;;;;12.91;45.33;101775.78;2077365;28;48121;-58
2022/05/01 03:45:32;;;;;;;;;18.75;17.00;;;;;12.91;45.23;101774.00;2078563;28;47805;-58
2022/05/01 03:46:36;;;;;;;;;18.20;15.80;;;;;12.90;45.44;101774.91;2070421;28;46890;-57
2022/05/01 03:47:37;;;;;;;;;14.60;14.60;;;;;12.88;45.34;101768.72;2070581;28;47261;-58
2022/05/01 03:48:37;;;;;;;;;18.60;18.00;;;;;12.87;45.42;101772.28;2078022;28;47810;-57
2022/05/01 03:49:38;;;;;;;;;14.75;14.75;;;;;12.86;45.68;101769.66;2078706;28;47363;-57
2022/05/01 03:50:39;;;;;;;;;17.00;17.00;;;;;12.85;45.70;101771.44;2078078;28;48097;-58
2022/05/01 03:51:39;;;;;;;;;14.20;14.20;;;;;12.82;45.46;101767.91;2078327;28;47621;-61
2022/05/01 03:52:39;;;;;;;;;16.00;13.50;;;;;12.82;45.64;101773.25;2078579;28;47978;-57
2022/05/01 03:53:41;;;;;;;;;18.25;16.25;;;;;12.81;45.55;101769.69;2076393;28;47330;-57
2022/05/01 03:54:41;;;;;;;;;18.40;17.20;;;;;12.81;45.68;101771.47;2077934;28;47936;-59
2022/05/01 03:55:42;;;;;;;;;15.50;14.75;;;;;12.82;45.46;101770.59;2078087;28;47979;-57
2022/05/01 03:56:43;;;;;;;;;17.25;14.25;;;;;12.81;45.43;101769.69;2078029;28;47810;-58
2022/05/01 03:57:43;;;;;;;;;21.20;19.60;;;;;12.83;45.42;101769.66;2077779;28;48226;-57
2022/05/01 03:58:44;;;;;;;;;16.50;15.50;;;;;12.83;45.62;101772.34;2080415;28;47529;-57
2022/05/01 03:59:46;;;;;;;;;18.75;18.50;;;;;12.83;45.67;101767.94;2079098;28;47726;-58
2022/05/01 04:00:48;;;;;;;;;17.00;16.60;;;;;12.85;45.61;101773.22;2088050;28;46859;-57
2022/05/01 04:01:48;;;;;;;;;18.80;17.60;;;;;12.84;45.64;101767.03;2088636;28;47905;-57
2022/05/01 04:02:49;;;;;;;;;18.25;17.50;;;;;12.83;45.62;101773.25;2080888;28;47578;-57
2022/05/01 04:03:49;;;;;;;;;17.50;16.00;;;;;12.82;45.64;101768.78;2069266;28;47464;-57
2022/05/01 04:04:51;;;;;;;;;17.00;16.25;;;;;12.81;45.66;101769.69;2071276;28;47831;-56
2022/05/01 04:05:52;;;;;;;;;19.00;18.40;;;;;12.79;45.57;101773.28;2087824;28;47711;-56
2022/05/01 04:06:52;;;;;;;;;20.75;19.50;;;;;12.78;45.95;101766.22;2088140;28;48396;-58
2022/05/01 04:07:53;;;;;;;;;18.25;17.00;;;;;12.75;45.78;101766.25;2088493;28;47199;-58
2022/05/01 04:08:53;;;;;;;;;14.50;13.25;;;;;12.73;45.97;101774.28;2087287;28;47751;-57
2022/05/01 04:09:54;;;;;;;;;15.75;15.00;;;;;12.69;45.94;101769.88;2086749;28;47923;-57
2022/05/01 04:10:54;;;;;;;;;16.50;15.00;;;;;12.66;45.94;101770.78;2087197;28;47687;-56
2022/05/01 04:11:54;;;;;;;;;17.25;16.75;;;;;12.66;45.94;101768.13;2088940;28;48082;-59
2022/05/01 04:12:55;;;;;;;;;18.50;18.50;;;;;12.66;46.06;101767.25;2088632;28;48100;-57
2022/05/01 04:13:55;;;;;;;;;18.00;18.00;;;;;12.65;46.14;101769.03;2080286;28;47529;-58
2022/05/01 04:14:58;;;;;;;;;18.25;16.75;;;;;12.65;46.09;101763.72;2088289;28;47704;-58
2022/05/01 04:15:59;;;;;;;;;17.00;16.60;;;;;12.65;46.02;101765.50;2088371;28;47640;-58
2022/05/01 04:16:59;;;;;;;;;18.75;16.75;;;;;12.64;46.10;101766.41;2087934;28;47433;-58
2022/05/01 04:18:02;;;;;;;;;15.75;14.75;;;;;12.64;46.17;101769.06;2087490;28;46869;-57
2022/05/01 04:19:03;;;;;;;;;18.00;18.00;;;;;12.63;46.37;101767.31;2082150;28;47129;-58
2022/05/01 04:20:05;;;;;;;;;18.75;18.75;;;;;12.62;46.17;101762.88;2088440;28;47758;-57
2022/05/01 04:21:07;;;;;;;;;18.20;16.40;;;;;12.60;46.32;101770.91;2083355;28;47701;-56
2022/05/01 04:22:07;;;;;;;;;17.60;16.60;;;;;12.59;46.42;101762.94;2089677;28;47756;-57
2022/05/01 04:23:08;;;;;;;;;17.75;17.75;;;;;12.58;46.27;101764.72;2085297;28;48067;-57
2022/05/01 04:24:09;;;;;;;;;19.00;16.80;;;;;12.58;46.20;101770.03;2085425;28;48038;-57
2022/05/01 04:25:29;;;;;;;;;18.75;18.75;;;;;12.57;46.16;101767.38;2094673;28;46922;-57
2022/05/01 04:26:30;;;;;;;;;16.60;16.60;;;;;12.55;46.42;101770.06;2089320;28;47351;-58
2022/05/01 04:27:30;;;;;;;;;15.50;15.25;;;;;12.54;46.58;101768.28;2081189;28;47580;-57
2022/05/01 04:28:30;;;;;;;;;18.00;17.00;;;;;12.54;46.43;101767.41;2087429;28;48037;-56
2022/05/01 04:29:37;;;;;;;;;20.25;18.25;;;;;12.53;46.44;101766.53;2085307;28;47608;-57
2022/05/01 04:30:42;;;;;;;;;19.80;19.80;;;;;12.54;46.54;101770.09;2086070;28;48057;-57
2022/05/01 04:31:43;;;;;;;;;22.00;21.80;;;;;12.55;46.50;101772.72;2090337;28;47431;-57
2022/05/01 04:33:05;;;;;;;;;21.75;20.75;;;;;12.55;46.35;101763.84;2091324;28;47496;-55
2022/05/01 04:34:06;;;;;;;;;4.00;3.40;;;;;12.54;46.48;101772.75;2079210;28;47917;-57
2022/05/01 04:35:07;;;;;;;;;20.50;18.50;;;;;12.52;46.40;101770.09;2085789;28;47594;-57
2022/05/01 04:36:07;;;;;;;;;17.40;17.40;;;;;12.52;46.62;101767.44;2086490;28;47397;-56
2022/05/01 04:37:08;;;;;;;;;19.75;19.75;;;;;12.52;46.56;101774.53;2085996;28;48145;-57
2022/05/01 04:38:10;;;;;;;;;20.25;20.25;;;;;12.52;46.38;101769.22;2092192;28;47668;-57
2022/05/01 04:39:10;;;;;;;;;20.40;16.60;;;;;12.51;46.43;101767.47;2086852;28;47802;-57
2022/05/01 04:40:11;;;;;;;;;19.00;18.25;;;;;12.53;46.78;101765.66;2086433;28;47883;-57
2022/05/01 04:41:16;;;;;;;;;16.25;15.25;;;;;12.53;46.64;101766.53;2085516;28;47534;-57
2022/05/01 04:42:17;;;;;;;;;18.00;18.00;;;;;12.53;46.62;101766.53;2083964;28;45647;-56
2022/05/01 04:43:26;;;;;;;;;19.20;19.00;;;;;12.54;46.62;101770.09;2084997;28;47570;-57
2022/05/01 04:44:27;;;;;;;;;18.60;17.40;;;;;12.53;46.50;101770.97;2084933;28;47700;-60
2022/05/01 04:45:31;;;;;;;;;20.80;18.20;;;;;12.51;46.46;101767.47;2085531;28;47724;-57
2022/05/01 04:46:32;;;;;;;;;19.60;18.40;;;;;12.49;46.80;101771.94;2086453;28;47330;-58
2022/05/01 04:47:32;;;;;;;;;17.25;16.75;;;;;12.48;46.87;101772.84;2086466;28;48086;-59
2022/05/01 04:48:33;;;;;;;;;21.75;21.25;;;;;12.46;46.80;101767.53;2086513;28;47099;-59
2022/05/01 04:49:33;;;;;;;;;20.50;18.50;;;;;12.45;46.69;101767.53;2069167;28;47941;-57
2022/05/01 04:50:34;;;;;;;;;19.25;19.25;;;;;12.45;46.95;101773.75;2067166;28;47545;-57
2022/05/01 04:51:35;;;;;;;;;18.00;17.80;;;;;12.43;46.87;101762.22;2082873;28;47507;-58
2022/05/01 04:52:36;;;;;;;;;17.50;16.50;;;;;12.43;46.82;101764.00;2081677;28;47245;-57